sensor_id;sensor_type;location;lat;lon;timestamp;pressure;altitude;pressure_sealevel;temperature;humidity
31538;BME280;18147;51.952;6.146;2022-09-13T00:00:34;100922.44;;;16.95;100.00
31538;BME280;18147;51.952;6.146;2022-09-13T00:03:00;100916.94;;;16.97;100.00
31538;BME280;18147;51.952;6.146;2022-09-13T00:05:26;100908.44;;;17.01;100.00
31538;BME280;18147;51.952;6.146;2022-09-13T00:07:52;100903.91;;;17.02;100.00
31538;BME280;18147;51.952;6.146;2022-09-13T00:10:18;100901.22;;;17.12;100.00
31538;BME280;18147;51.952;6.146;2022-09-13T00:12:44;100905.31;;;17.06;100.00
31538;BME280;18147;51.952;6.146;2022-09-13T00:15:10;100902.22;;;17.11;100.00
31538;BME280;18147;51.952;6.146;2022-09-13T00:17:36;100905.75;;;17.11;100.00
31538;BME280;18147;51.952;6.146;2022-09-13T00:20:02;100906.63;;;17.12;100.00
31538;BME280;18147;51.952;6.146;2022-09-13T00:22:31;100899.22;;;17.04;100.00
31538;BME280;18147;51.952;6.146;2022-09-13T00:24:56;100900.09;;;17.04;100.00
31538;BME280;18147;51.952;6.146;2022-09-13T00:27:22;100898.25;;;17.15;100.00
31538;BME280;18147;51.952;6.146;2022-09-13T00:29:47;100895.16;;;17.19;100.00
31538;BME280;18147;51.952;6.146;2022-09-13T00:32:13;100898.00;;;17.18;100.00
31538;BME280;18147;51.952;6.146;2022-09-13T00:34:38;100893.13;;;17.12;100.00
31538;BME280;18147;51.952;6.146;2022-09-13T00:37:04;100883.94;;;17.14;100.00
31538;BME280;18147;51.952;6.146;2022-09-13T00:39:29;100886.63;;;17.04;100.00
31538;BME280;18147;51.952;6.146;2022-09-13T00:41:55;100883.63;;;16.98;100.00
31538;BME280;18147;51.952;6.146;2022-09-13T00:47:25;100872.88;;;17.07;100.00
31538;BME280;18147;51.952;6.146;2022-09-13T00:50:05;100876.38;;;16.98;100.00
31538;BME280;18147;51.952;6.146;2022-09-13T00:52:36;100871.88;;;17.08;100.00
31538;BME280;18147;51.952;6.146;2022-09-13T00:55:16;100867.19;;;17.11;100.00
31538;BME280;18147;51.952;6.146;2022-09-13T00:57:44;100874.28;;;17.02;100.00
31538;BME280;18147;51.952;6.146;2022-09-13T01:00:12;100868.44;;;17.06;100.00
31538;BME280;18147;51.952;6.146;2022-09-13T01:03:42;100869.59;;;17.04;100.00
31538;BME280;18147;51.952;6.146;2022-09-13T01:06:12;100864.78;;;17.07;100.00
31538;BME280;18147;51.952;6.146;2022-09-13T01:08:40;100879.25;;;17.16;100.00
31538;BME280;18147;51.952;6.146;2022-09-13T01:11:11;100868.22;;;17.19;100.00
31538;BME280;18147;51.952;6.146;2022-09-13T01:13:41;100865.66;;;17.18;100.00
31538;BME280;18147;51.952;6.146;2022-09-13T01:16:07;100865.06;;;17.04;100.00
31538;BME280;18147;51.952;6.146;2022-09-13T01:18:33;100864.03;;;16.96;100.00
31538;BME280;18147;51.952;6.146;2022-09-13T01:26:47;100854.06;;;16.87;100.00
31538;BME280;18147;51.952;6.146;2022-09-13T01:38:20;100846.66;;;17.19;100.00
31538;BME280;18147;51.952;6.146;2022-09-13T01:52:27;100835.59;;;17.22;100.00
31538;BME280;18147;51.952;6.146;2022-09-13T01:55:05;100833.31;;;17.18;100.00
31538;BME280;18147;51.952;6.146;2022-09-13T01:57:52;100848.47;;;17.09;100.00
31538;BME280;18147;51.952;6.146;2022-09-13T02:00:20;100861.25;;;17.07;100.00
31538;BME280;18147;51.952;6.146;2022-09-13T02:02:49;100854.16;;;17.16;100.00
31538;BME280;18147;51.952;6.146;2022-09-13T02:05:40;100858.13;;;17.02;100.00
31538;BME280;18147;51.952;6.146;2022-09-13T02:08:44;100850.59;;;17.05;100.00
31538;BME280;18147;51.952;6.146;2022-09-13T02:11:13;100844.53;;;17.13;100.00
31538;BME280;18147;51.952;6.146;2022-09-13T02:13:49;100852.19;;;17.27;100.00
31538;BME280;18147;51.952;6.146;2022-09-13T02:16:23;100846.78;;;17.08;100.00
31538;BME280;18147;51.952;6.146;2022-09-13T02:18:54;100844.19;;;17.06;100.00
31538;BME280;18147;51.952;6.146;2022-09-13T02:21:28;100844.78;;;17.10;100.00
31538;BME280;18147;51.952;6.146;2022-09-13T02:24:05;100851.63;;;17.24;100.00
31538;BME280;18147;51.952;6.146;2022-09-13T02:26:34;100854.28;;;17.14;100.00
31538;BME280;18147;51.952;6.146;2022-09-13T02:29:04;100850.03;;;17.21;100.00
31538;BME280;18147;51.952;6.146;2022-09-13T02:31:47;100849.34;;;17.19;100.00
31538;BME280;18147;51.952;6.146;2022-09-13T02:34:18;100841.09;;;17.21;100.00
31538;BME280;18147;51.952;6.146;2022-09-13T02:36:46;100843.94;;;17.09;100.00
31538;BME280;18147;51.952;6.146;2022-09-13T02:39:15;100836.56;;;17.12;100.00
31538;BME280;18147;51.952;6.146;2022-09-13T02:41:50;100843.53;;;17.14;100.00
31538;BME280;18147;51.952;6.146;2022-09-13T02:44:30;100834.28;;;17.26;100.00
31538;BME280;18147;51.952;6.146;2022-09-13T02:58:06;100843.81;;;17.21;100.00
31538;BME280;18147;51.952;6.146;2022-09-13T03:00:34;100837.84;;;17.27;100.00
31538;BME280;18147;51.952;6.146;2022-09-13T03:03:03;100845.38;;;17.23;100.00
31538;BME280;18147;51.952;6.146;2022-09-13T03:05:29;100846.66;;;17.19;100.00
31538;BME280;18147;51.952;6.146;2022-09-13T03:07:56;100851.84;;;17.01;100.00
31538;BME280;18147;51.952;6.146;2022-09-13T03:10:23;100866.66;;;16.76;100.00
31538;BME280;18147;51.952;6.146;2022-09-13T03:15:23;100847.63;;;17.08;100.00
31538;BME280;18147;51.952;6.146;2022-09-13T03:21:11;100857.94;;;16.94;100.00
31538;BME280;18147;51.952;6.146;2022-09-13T03:23:46;100851.97;;;16.90;100.00
31538;BME280;18147;51.952;6.146;2022-09-13T03:29:30;100868.31;;;16.98;100.00
31538;BME280;18147;51.952;6.146;2022-09-13T03:37:55;100865.34;;;17.11;100.00
31538;BME280;18147;51.952;6.146;2022-09-13T03:40:35;100870.19;;;17.07;100.00
31538;BME280;18147;51.952;6.146;2022-09-13T03:45:37;100876.44;;;17.18;100.00
31538;BME280;18147;51.952;6.146;2022-09-13T03:48:05;100871.91;;;17.18;100.00
31538;BME280;18147;51.952;6.146;2022-09-13T03:50:32;100867.50;;;17.17;100.00
31538;BME280;18147;51.952;6.146;2022-09-13T03:53:06;100870.28;;;16.96;100.00
31538;BME280;18147;51.952;6.146;2022-09-13T03:55:34;100871.69;;;17.00;100.00
31538;BME280;18147;51.952;6.146;2022-09-13T03:58:02;100873.41;;;17.01;100.00
31538;BME280;18147;51.952;6.146;2022-09-13T04:00:28;100873.16;;;17.14;100.00
31538;BME280;18147;51.952;6.146;2022-09-13T04:02:53;100870.19;;;17.17;100.00
31538;BME280;18147;51.952;6.146;2022-09-13T04:05:19;100875.28;;;17.20;100.00
31538;BME280;18147;51.952;6.146;2022-09-13T04:07:46;100871.91;;;17.18;100.00
31538;BME280;18147;51.952;6.146;2022-09-13T04:10:11;100860.81;;;17.02;100.00
31538;BME280;18147;51.952;6.146;2022-09-13T04:12:37;100860.94;;;17.10;100.00
31538;BME280;18147;51.952;6.146;2022-09-13T04:15:03;100860.38;;;17.16;100.00
31538;BME280;18147;51.952;6.146;2022-09-13T04:17:29;100859.41;;;17.17;100.00
31538;BME280;18147;51.952;6.146;2022-09-13T04:19:54;100859.69;;;17.14;100.00
31538;BME280;18147;51.952;6.146;2022-09-13T04:22:20;100867.63;;;17.16;100.00
31538;BME280;18147;51.952;6.146;2022-09-13T04:24:45;100859.41;;;17.07;100.00
31538;BME280;18147;51.952;6.146;2022-09-13T04:27:11;100855.41;;;16.92;100.00
31538;BME280;18147;51.952;6.146;2022-09-13T04:29:36;100853.22;;;16.86;100.00
31538;BME280;18147;51.952;6.146;2022-09-13T04:32:02;100850.69;;;16.85;100.00
31538;BME280;18147;51.952;6.146;2022-09-13T04:34:27;100852.78;;;16.81;100.00
31538;BME280;18147;51.952;6.146;2022-09-13T04:36:53;100852.56;;;16.94;100.00
31538;BME280;18147;51.952;6.146;2022-09-13T04:39:19;100851.38;;;16.87;100.00
31538;BME280;18147;51.952;6.146;2022-09-13T04:41:46;100855.06;;;16.86;100.00
31538;BME280;18147;51.952;6.146;2022-09-13T04:44:12;100860.50;;;16.95;100.00
31538;BME280;18147;51.952;6.146;2022-09-13T04:46:38;100869.84;;;17.01;100.00
31538;BME280;18147;51.952;6.146;2022-09-13T04:49:04;100873.00;;;17.06;100.00
31538;BME280;18147;51.952;6.146;2022-09-13T04:51:29;100871.31;;;17.15;100.00
31538;BME280;18147;51.952;6.146;2022-09-13T04:53:55;100871.88;;;17.08;100.00
31538;BME280;18147;51.952;6.146;2022-09-13T04:56:24;100877.69;;;17.14;100.00
31538;BME280;18147;51.952;6.146;2022-09-13T04:58:50;100880.84;;;17.19;100.00
31538;BME280;18147;51.952;6.146;2022-09-13T05:01:16;100872.34;;;17.23;100.00
31538;BME280;18147;51.952;6.146;2022-09-13T05:03:41;100881.69;;;17.19;100.00
31538;BME280;18147;51.952;6.146;2022-09-13T05:06:09;100879.56;;;17.23;100.00
31538;BME280;18147;51.952;6.146;2022-09-13T05:08:35;100886.22;;;17.19;100.00
31538;BME280;18147;51.952;6.146;2022-09-13T05:11:01;100892.47;;;17.19;100.00
31538;BME280;18147;51.952;6.146;2022-09-13T05:13:27;100894.47;;;17.17;100.00
31538;BME280;18147;51.952;6.146;2022-09-13T05:16:01;100881.56;;;17.30;100.00
31538;BME280;18147;51.952;6.146;2022-09-13T05:18:28;100893.06;;;17.32;100.00
31538;BME280;18147;51.952;6.146;2022-09-13T05:20:55;100882.72;;;17.38;100.00
31538;BME280;18147;51.952;6.146;2022-09-13T05:23:24;100877.44;;;17.36;100.00
31538;BME280;18147;51.952;6.146;2022-09-13T05:25:58;100879.44;;;17.44;100.00
31538;BME280;18147;51.952;6.146;2022-09-13T05:28:24;100876.75;;;17.44;100.00
31538;BME280;18147;51.952;6.146;2022-09-13T05:30:59;100873.50;;;17.59;100.00
31538;BME280;18147;51.952;6.146;2022-09-13T05:33:26;100871.63;;;17.50;100.00
31538;BME280;18147;51.952;6.146;2022-09-13T05:35:52;100873.34;;;17.71;100.00
31538;BME280;18147;51.952;6.146;2022-09-13T05:38:18;100886.97;;;17.69;100.00
31538;BME280;18147;51.952;6.146;2022-09-13T05:40:44;100882.75;;;17.76;100.00
31538;BME280;18147;51.952;6.146;2022-09-13T05:43:10;100892.69;;;17.85;100.00
31538;BME280;18147;51.952;6.146;2022-09-13T05:45:35;100891.81;;;17.85;100.00
31538;BME280;18147;51.952;6.146;2022-09-13T05:48:01;100902.03;;;17.81;100.00
31538;BME280;18147;51.952;6.146;2022-09-13T05:50:27;100894.25;;;17.88;100.00
31538;BME280;18147;51.952;6.146;2022-09-13T05:52:55;100896.38;;;17.84;100.00
31538;BME280;18147;51.952;6.146;2022-09-13T05:55:21;100902.34;;;17.88;100.00
31538;BME280;18147;51.952;6.146;2022-09-13T05:57:48;100891.69;;;17.86;100.00
31538;BME280;18147;51.952;6.146;2022-09-13T06:00:14;100898.34;;;17.92;100.00
31538;BME280;18147;51.952;6.146;2022-09-13T06:02:40;100894.09;;;17.90;100.00
31538;BME280;18147;51.952;6.146;2022-09-13T06:05:07;100898.19;;;18.13;100.00
31538;BME280;18147;51.952;6.146;2022-09-13T06:07:34;100903.00;;;18.29;100.00
31538;BME280;18147;51.952;6.146;2022-09-13T06:09:59;100899.72;;;18.25;100.00
31538;BME280;18147;51.952;6.146;2022-09-13T06:12:25;100904.97;;;18.27;100.00
31538;BME280;18147;51.952;6.146;2022-09-13T06:14:50;100898.66;;;18.46;100.00
31538;BME280;18147;51.952;6.146;2022-09-13T06:17:16;100905.50;;;18.50;100.00
31538;BME280;18147;51.952;6.146;2022-09-13T06:19:41;100907.00;;;18.62;100.00
31538;BME280;18147;51.952;6.146;2022-09-13T06:22:07;100911.88;;;18.68;100.00
31538;BME280;18147;51.952;6.146;2022-09-13T06:24:32;100910.41;;;18.74;100.00
31538;BME280;18147;51.952;6.146;2022-09-13T06:26:57;100905.25;;;18.80;100.00
31538;BME280;18147;51.952;6.146;2022-09-13T06:29:23;100907.13;;;18.80;100.00
31538;BME280;18147;51.952;6.146;2022-09-13T06:31:48;100899.00;;;18.80;100.00
31538;BME280;18147;51.952;6.146;2022-09-13T06:34:14;100907.41;;;18.77;100.00
31538;BME280;18147;51.952;6.146;2022-09-13T06:36:40;100894.69;;;18.87;100.00
31538;BME280;18147;51.952;6.146;2022-09-13T06:39:06;100904.31;;;18.99;100.00
31538;BME280;18147;51.952;6.146;2022-09-13T06:41:32;100899.66;;;19.19;100.00
31538;BME280;18147;51.952;6.146;2022-09-13T06:43:59;100902.84;;;19.32;100.00
31538;BME280;18147;51.952;6.146;2022-09-13T06:46:27;100902.66;;;19.16;100.00
31538;BME280;18147;51.952;6.146;2022-09-13T06:48:53;100905.84;;;19.29;100.00
31538;BME280;18147;51.952;6.146;2022-09-13T06:51:21;100900.50;;;19.37;100.00
31538;BME280;18147;51.952;6.146;2022-09-13T06:53:47;100897.06;;;19.45;100.00
31538;BME280;18147;51.952;6.146;2022-09-13T06:56:15;100894.97;;;19.57;100.00
31538;BME280;18147;51.952;6.146;2022-09-13T06:58:43;100892.69;;;19.62;100.00
31538;BME280;18147;51.952;6.146;2022-09-13T07:03:44;100889.25;;;20.13;100.00
31538;BME280;18147;51.952;6.146;2022-09-13T07:06:15;100884.44;;;20.07;100.00
31538;BME280;18147;51.952;6.146;2022-09-13T07:08:42;100895.34;;;20.15;100.00
31538;BME280;18147;51.952;6.146;2022-09-13T07:11:09;100900.28;;;20.20;100.00
31538;BME280;18147;51.952;6.146;2022-09-13T07:13:35;100896.28;;;20.32;100.00
31538;BME280;18147;51.952;6.146;2022-09-13T07:16:09;100913.84;;;20.02;100.00
31538;BME280;18147;51.952;6.146;2022-09-13T07:18:35;100900.94;;;20.14;100.00
31538;BME280;18147;51.952;6.146;2022-09-13T07:21:03;100907.44;;;20.47;100.00
31538;BME280;18147;51.952;6.146;2022-09-13T07:23:31;100906.59;;;20.47;100.00
31538;BME280;18147;51.952;6.146;2022-09-13T07:25:57;100899.91;;;20.67;100.00
31538;BME280;18147;51.952;6.146;2022-09-13T07:28:34;100907.09;;;20.76;99.89
31538;BME280;18147;51.952;6.146;2022-09-13T07:31:10;100906.41;;;21.16;98.02
31538;BME280;18147;51.952;6.146;2022-09-13T07:33:37;100920.66;;;20.76;100.00
31538;BME280;18147;51.952;6.146;2022-09-13T07:36:04;100907.63;;;21.22;98.21
31538;BME280;18147;51.952;6.146;2022-09-13T07:38:39;100915.69;;;21.06;97.24
31538;BME280;18147;51.952;6.146;2022-09-13T07:41:06;100908.09;;;21.17;97.27
31538;BME280;18147;51.952;6.146;2022-09-13T07:43:34;100912.22;;;21.30;94.88
31538;BME280;18147;51.952;6.146;2022-09-13T07:46:02;100896.56;;;21.90;91.44
31538;BME280;18147;51.952;6.146;2022-09-13T07:48:29;100904.69;;;21.82;92.90
31538;BME280;18147;51.952;6.146;2022-09-13T07:51:09;100902.66;;;22.41;91.18
31538;BME280;18147;51.952;6.146;2022-09-13T07:53:36;100900.28;;;22.46;90.34
31538;BME280;18147;51.952;6.146;2022-09-13T07:56:04;100919.63;;;22.52;90.96
31538;BME280;18147;51.952;6.146;2022-09-13T07:58:30;100913.53;;;22.49;90.15
31538;BME280;18147;51.952;6.146;2022-09-13T08:01:06;100921.41;;;22.92;91.06
31538;BME280;18147;51.952;6.146;2022-09-13T08:03:32;100921.09;;;23.26;85.64
31538;BME280;18147;51.952;6.146;2022-09-13T08:05:58;100917.97;;;23.06;90.55
31538;BME280;18147;51.952;6.146;2022-09-13T08:08:24;100921.81;;;23.20;89.03
31538;BME280;18147;51.952;6.146;2022-09-13T08:10:49;100925.41;;;23.12;89.59
31538;BME280;18147;51.952;6.146;2022-09-13T08:13:15;100929.78;;;22.66;94.13
31538;BME280;18147;51.952;6.146;2022-09-13T08:15:41;100926.69;;;22.69;94.41
31538;BME280;18147;51.952;6.146;2022-09-13T08:18:07;100930.63;;;22.74;90.98
31538;BME280;18147;51.952;6.146;2022-09-13T08:20:37;100930.25;;;22.86;91.02
31538;BME280;18147;51.952;6.146;2022-09-13T08:23:03;100937.97;;;23.13;89.87
31538;BME280;18147;51.952;6.146;2022-09-13T08:25:31;100925.00;;;22.84;95.13
31538;BME280;18147;51.952;6.146;2022-09-13T08:28:08;100929.03;;;22.96;93.96
31538;BME280;18147;51.952;6.146;2022-09-13T08:30:36;100934.38;;;23.21;91.38
31538;BME280;18147;51.952;6.146;2022-09-13T08:33:05;100942.13;;;23.40;92.79
31538;BME280;18147;51.952;6.146;2022-09-13T08:35:31;100930.06;;;23.35;91.29
31538;BME280;18147;51.952;6.146;2022-09-13T08:37:58;100934.47;;;23.36;92.14
31538;BME280;18147;51.952;6.146;2022-09-13T08:40:26;100926.16;;;23.29;91.99
31538;BME280;18147;51.952;6.146;2022-09-13T08:43:44;100925.09;;;23.07;95.93
31538;BME280;18147;51.952;6.146;2022-09-13T08:46:10;100922.22;;;23.00;93.40
31538;BME280;18147;51.952;6.146;2022-09-13T08:48:36;100930.22;;;23.02;92.57
31538;BME280;18147;51.952;6.146;2022-09-13T08:51:05;100925.84;;;23.24;91.20
31538;BME280;18147;51.952;6.146;2022-09-13T08:53:44;100933.97;;;23.01;93.87
31538;BME280;18147;51.952;6.146;2022-09-13T08:56:21;100933.03;;;22.69;97.89
31538;BME280;18147;51.952;6.146;2022-09-13T09:02:08;100920.91;;;22.88;96.38
31538;BME280;18147;51.952;6.146;2022-09-13T09:04:45;100924.34;;;23.52;94.57
31538;BME280;18147;51.952;6.146;2022-09-13T09:07:21;100917.56;;;23.48;96.62
31538;BME280;18147;51.952;6.146;2022-09-13T09:10:16;100925.19;;;23.22;95.04
31538;BME280;18147;51.952;6.146;2022-09-13T09:12:49;100929.97;;;23.20;95.55
31538;BME280;18147;51.952;6.146;2022-09-13T09:15:29;100930.50;;;23.77;90.36
31538;BME280;18147;51.952;6.146;2022-09-13T09:18:10;100935.91;;;23.86;91.06
31538;BME280;18147;51.952;6.146;2022-09-13T09:20:45;100936.50;;;24.34;89.37
31538;BME280;18147;51.952;6.146;2022-09-13T09:25:43;100937.09;;;24.06;88.88
31538;BME280;18147;51.952;6.146;2022-09-13T09:28:12;100935.28;;;23.75;87.43
31538;BME280;18147;51.952;6.146;2022-09-13T09:30:48;100942.50;;;23.29;90.75
31538;BME280;18147;51.952;6.146;2022-09-13T09:36:50;100947.31;;;23.19;92.50
31538;BME280;18147;51.952;6.146;2022-09-13T09:39:20;100948.28;;;22.95;93.55
31538;BME280;18147;51.952;6.146;2022-09-13T09:41:47;100936.53;;;22.94;96.33
31538;BME280;18147;51.952;6.146;2022-09-13T09:44:18;100938.59;;;22.84;96.49
31538;BME280;18147;51.952;6.146;2022-09-13T09:47:09;100937.44;;;23.18;98.34
31538;BME280;18147;51.952;6.146;2022-09-13T09:53:00;100936.81;;;23.08;91.41
31538;BME280;18147;51.952;6.146;2022-09-13T09:55:47;100941.38;;;23.15;94.23
31538;BME280;18147;51.952;6.146;2022-09-13T09:58:16;100937.22;;;23.27;92.10
31538;BME280;18147;51.952;6.146;2022-09-13T10:00:55;100936.72;;;23.24;93.34
31538;BME280;18147;51.952;6.146;2022-09-13T10:03:27;100940.59;;;22.98;92.93
31538;BME280;18147;51.952;6.146;2022-09-13T10:06:12;100933.81;;;22.94;95.38
31538;BME280;18147;51.952;6.146;2022-09-13T10:08:40;100933.69;;;22.63;96.40
31538;BME280;18147;51.952;6.146;2022-09-13T10:11:07;100931.53;;;22.51;97.11
31538;BME280;18147;51.952;6.146;2022-09-13T10:13:34;100932.50;;;22.66;94.64
31538;BME280;18147;51.952;6.146;2022-09-13T10:16:20;100922.16;;;23.17;95.21
31538;BME280;18147;51.952;6.146;2022-09-13T10:18:47;100926.94;;;23.46;91.00
31538;BME280;18147;51.952;6.146;2022-09-13T10:23:41;100920.44;;;23.55;90.65
31538;BME280;18147;51.952;6.146;2022-09-13T10:26:10;100928.09;;;23.51;91.82
31538;BME280;18147;51.952;6.146;2022-09-13T10:29:04;100920.94;;;23.82;88.73
31538;BME280;18147;51.952;6.146;2022-09-13T10:31:38;100925.47;;;23.89;87.07
31538;BME280;18147;51.952;6.146;2022-09-13T10:34:12;100922.19;;;23.94;85.35
31538;BME280;18147;51.952;6.146;2022-09-13T10:36:53;100922.41;;;24.30;84.99
31538;BME280;18147;51.952;6.146;2022-09-13T10:39:22;100920.13;;;24.34;84.62
31538;BME280;18147;51.952;6.146;2022-09-13T10:41:51;100917.97;;;24.29;86.36
31538;BME280;18147;51.952;6.146;2022-09-13T10:46:53;100917.22;;;23.74;84.75
31538;BME280;18147;51.952;6.146;2022-09-13T10:49:36;100912.88;;;23.88;85.27
31538;BME280;18147;51.952;6.146;2022-09-13T10:54:47;100910.34;;;23.64;88.12
31538;BME280;18147;51.952;6.146;2022-09-13T10:57:34;100919.50;;;23.63;87.23
31538;BME280;18147;51.952;6.146;2022-09-13T11:00:04;100909.31;;;23.88;93.33
31538;BME280;18147;51.952;6.146;2022-09-13T11:10:38;100906.66;;;24.85;81.85
31538;BME280;18147;51.952;6.146;2022-09-13T11:13:28;100901.31;;;24.91;78.12
31538;BME280;18147;51.952;6.146;2022-09-13T11:16:19;100892.91;;;25.22;79.93
31538;BME280;18147;51.952;6.146;2022-09-13T11:24:41;100897.56;;;24.77;79.22
31538;BME280;18147;51.952;6.146;2022-09-13T11:27:49;100893.22;;;24.83;81.67
31538;BME280;18147;51.952;6.146;2022-09-13T11:30:20;100901.78;;;24.36;77.46
31538;BME280;18147;51.952;6.146;2022-09-13T11:35:51;100891.72;;;24.36;86.52
31538;BME280;18147;51.952;6.146;2022-09-13T11:38:44;100899.00;;;24.21;84.73
31538;BME280;18147;51.952;6.146;2022-09-13T11:52:39;100885.28;;;23.91;82.99
31538;BME280;18147;51.952;6.146;2022-09-13T11:55:27;100881.75;;;24.43;79.79
31538;BME280;18147;51.952;6.146;2022-09-13T11:57:57;100876.28;;;24.73;89.23
31538;BME280;18147;51.952;6.146;2022-09-13T12:00:29;100873.75;;;23.58;82.81
31538;BME280;18147;51.952;6.146;2022-09-13T12:03:01;100868.25;;;24.27;81.82
31538;BME280;18147;51.952;6.146;2022-09-13T12:05:38;100869.63;;;24.61;79.98
31538;BME280;18147;51.952;6.146;2022-09-13T12:08:17;100869.50;;;24.84;76.39
31538;BME280;18147;51.952;6.146;2022-09-13T12:10:54;100870.00;;;24.87;76.38
31538;BME280;18147;51.952;6.146;2022-09-13T12:13:26;100870.16;;;25.00;75.66
31538;BME280;18147;51.952;6.146;2022-09-13T12:15:55;100868.09;;;25.02;75.47
31538;BME280;18147;51.952;6.146;2022-09-13T12:20:57;100860.00;;;25.45;73.05
31538;BME280;18147;51.952;6.146;2022-09-13T12:23:34;100857.84;;;25.62;73.69
31538;BME280;18147;51.952;6.146;2022-09-13T12:26:06;100862.78;;;25.30;72.52
31538;BME280;18147;51.952;6.146;2022-09-13T12:28:39;100866.09;;;25.26;72.61
31538;BME280;18147;51.952;6.146;2022-09-13T12:31:10;100859.44;;;25.35;72.70
31538;BME280;18147;51.952;6.146;2022-09-13T12:33:41;100859.34;;;24.92;77.26
31538;BME280;18147;51.952;6.146;2022-09-13T12:42:25;100866.72;;;25.28;74.62
31538;BME280;18147;51.952;6.146;2022-09-13T12:44:34;100873.28;;;25.12;71.72
31538;BME280;18147;51.952;6.146;2022-09-13T12:53:23;100858.38;;;25.15;72.31
31538;BME280;18147;51.952;6.146;2022-09-13T13:01:22;100853.56;;;25.53;71.84
31538;BME280;18147;51.952;6.146;2022-09-13T13:04:08;100861.19;;;25.79;71.18
31538;BME280;18147;51.952;6.146;2022-09-13T13:09:38;100851.31;;;25.78;71.90
31538;BME280;18147;51.952;6.146;2022-09-13T13:12:08;100851.34;;;25.20;71.86
31538;BME280;18147;51.952;6.146;2022-09-13T13:18:18;100844.00;;;25.21;74.18
31538;BME280;18147;51.952;6.146;2022-09-13T13:23:31;100836.06;;;25.90;66.67
31538;BME280;18147;51.952;6.146;2022-09-13T13:39:12;100835.91;;;24.98;72.39
31538;BME280;18147;51.952;6.146;2022-09-13T13:41:58;100837.72;;;24.91;72.74
31538;BME280;18147;51.952;6.146;2022-09-13T13:46:52;100838.31;;;24.71;72.56
31538;BME280;18147;51.952;6.146;2022-09-13T13:59:51;100842.16;;;24.77;71.50
31538;BME280;18147;51.952;6.146;2022-09-13T14:02:21;100843.16;;;25.05;68.68
31538;BME280;18147;51.952;6.146;2022-09-13T14:05:07;100839.34;;;24.85;70.85
31538;BME280;18147;51.952;6.146;2022-09-13T14:07:47;100847.19;;;25.10;66.63
31538;BME280;18147;51.952;6.146;2022-09-13T14:10:26;100845.59;;;25.00;67.43
31538;BME280;18147;51.952;6.146;2022-09-13T14:13:21;100847.47;;;25.00;63.67
31538;BME280;18147;51.952;6.146;2022-09-13T14:19:16;100825.84;;;25.35;64.53
31538;BME280;18147;51.952;6.146;2022-09-13T14:21:43;100827.94;;;25.54;63.85
31538;BME280;18147;51.952;6.146;2022-09-13T14:24:23;100831.19;;;25.21;60.31
31538;BME280;18147;51.952;6.146;2022-09-13T14:27:15;100841.78;;;24.80;66.18
31538;BME280;18147;51.952;6.146;2022-09-13T14:29:46;100846.91;;;24.90;61.92
31538;BME280;18147;51.952;6.146;2022-09-13T14:32:15;100841.63;;;25.18;60.67
31538;BME280;18147;51.952;6.146;2022-09-13T14:34:53;100832.84;;;24.86;65.01
31538;BME280;18147;51.952;6.146;2022-09-13T14:37:24;100824.78;;;24.48;61.58
31538;BME280;18147;51.952;6.146;2022-09-13T14:39:54;100827.69;;;24.47;64.24
31538;BME280;18147;51.952;6.146;2022-09-13T14:42:21;100831.31;;;24.24;65.67
31538;BME280;18147;51.952;6.146;2022-09-13T14:44:47;100831.69;;;24.07;66.28
31538;BME280;18147;51.952;6.146;2022-09-13T14:47:34;100827.44;;;24.04;67.92
31538;BME280;18147;51.952;6.146;2022-09-13T14:50:11;100841.41;;;23.86;67.46
31538;BME280;18147;51.952;6.146;2022-09-13T14:52:47;100845.13;;;23.70;67.66
31538;BME280;18147;51.952;6.146;2022-09-13T14:55:18;100835.19;;;23.55;70.69
31538;BME280;18147;51.952;6.146;2022-09-13T14:57:54;100839.84;;;23.46;69.34
31538;BME280;18147;51.952;6.146;2022-09-13T15:00:23;100839.09;;;23.52;71.13
31538;BME280;18147;51.952;6.146;2022-09-13T15:02:55;100830.66;;;23.70;69.83
31538;BME280;18147;51.952;6.146;2022-09-13T15:05:26;100829.63;;;23.71;72.71
31538;BME280;18147;51.952;6.146;2022-09-13T15:07:52;100829.56;;;23.94;66.25
31538;BME280;18147;51.952;6.146;2022-09-13T15:10:31;100831.13;;;24.26;63.52
31538;BME280;18147;51.952;6.146;2022-09-13T15:18:04;100818.53;;;24.10;65.62
31538;BME280;18147;51.952;6.146;2022-09-13T15:23:27;100829.41;;;23.95;61.70
31538;BME280;18147;51.952;6.146;2022-09-13T15:26:10;100829.97;;;23.68;62.94
31538;BME280;18147;51.952;6.146;2022-09-13T15:29:11;100830.88;;;23.37;65.28
31538;BME280;18147;51.952;6.146;2022-09-13T15:31:41;100833.59;;;23.37;67.39
31538;BME280;18147;51.952;6.146;2022-09-13T15:34:10;100834.63;;;23.36;67.86
31538;BME280;18147;51.952;6.146;2022-09-13T15:36:36;100832.63;;;23.30;72.29
31538;BME280;18147;51.952;6.146;2022-09-13T15:39:13;100821.47;;;22.86;71.23
31538;BME280;18147;51.952;6.146;2022-09-13T15:41:51;100822.88;;;22.73;71.69
31538;BME280;18147;51.952;6.146;2022-09-13T15:44:16;100836.53;;;22.57;70.73
31538;BME280;18147;51.952;6.146;2022-09-13T15:46:49;100832.34;;;22.46;72.21
31538;BME280;18147;51.952;6.146;2022-09-13T15:49:19;100832.09;;;22.64;78.21
31538;BME280;18147;51.952;6.146;2022-09-13T15:51:45;100831.94;;;23.05;74.25
31538;BME280;18147;51.952;6.146;2022-09-13T15:54:16;100829.75;;;23.55;67.53
31538;BME280;18147;51.952;6.146;2022-09-13T15:56:44;100819.13;;;23.83;69.42
31538;BME280;18147;51.952;6.146;2022-09-13T15:59:13;100831.47;;;23.24;71.46
31538;BME280;18147;51.952;6.146;2022-09-13T16:01:41;100827.59;;;23.42;68.88